createdAt,value
2018-12-16T00:01:31.997Z,-2.10
2018-12-16T00:04:00.241Z,-2.20
2018-12-16T00:06:28.466Z,-1.90
2018-12-16T00:08:56.732Z,-1.90
2018-12-16T00:11:25.004Z,-1.90
2018-12-16T00:13:53.240Z,-1.90
2018-12-16T00:16:22.550Z,-1.90
2018-12-16T00:18:50.797Z,-1.90
2018-12-16T00:21:19.000Z,-2.00
2018-12-16T00:23:47.214Z,-2.00
2018-12-16T00:26:15.560Z,-2.00
2018-12-16T00:28:43.874Z,-1.90
2018-12-16T00:31:12.185Z,-1.80
2018-12-16T00:33:40.380Z,-2.00
2018-12-16T00:36:08.668Z,-2.10
2018-12-16T00:38:36.912Z,-1.90
2018-12-16T00:41:05.190Z,-1.90
2018-12-16T00:43:33.485Z,-1.90
2018-12-16T00:46:03.024Z,-1.90
2018-12-16T00:48:31.241Z,-1.80
2018-12-16T00:50:59.473Z,-1.80
2018-12-16T00:53:27.685Z,-1.90
2018-12-16T00:55:57.027Z,-1.90
2018-12-16T00:58:25.233Z,-1.90
2018-12-16T01:00:53.557Z,-1.90
2018-12-16T01:03:21.937Z,-1.90
2018-12-16T01:05:53.287Z,-1.90
2018-12-16T01:08:21.494Z,-1.70
2018-12-16T01:10:49.746Z,-1.80
2018-12-16T01:13:17.948Z,-1.90
2018-12-16T01:15:47.195Z,-1.80
2018-12-16T01:18:15.500Z,-1.70
2018-12-16T01:20:43.803Z,-1.70
2018-12-16T01:23:12.037Z,-1.70
2018-12-16T01:25:40.300Z,-1.70
2018-12-16T01:28:08.531Z,-1.60
2018-12-16T01:30:36.812Z,-1.60
2018-12-16T01:33:05.041Z,-1.60
2018-12-16T01:35:33.457Z,-1.70
2018-12-16T01:38:01.976Z,-1.70
2018-12-16T01:40:30.384Z,-1.60
2018-12-16T01:42:58.597Z,-1.60
2018-12-16T01:45:26.858Z,-1.50
2018-12-16T01:47:55.048Z,-1.60
2018-12-16T01:50:23.276Z,-1.50
2018-12-16T01:52:51.565Z,-1.50
2018-12-16T01:55:19.759Z,-1.60
2018-12-16T01:57:47.977Z,-1.60
2018-12-16T02:00:16.357Z,-1.60
2018-12-16T02:02:44.734Z,-1.50
2018-12-16T02:05:13.142Z,-1.50
2018-12-16T02:07:41.349Z,-1.40
2018-12-16T02:10:09.772Z,-1.30
2018-12-16T02:12:38.005Z,-1.40
2018-12-16T02:15:06.429Z,-1.40
2018-12-16T02:17:34.686Z,-1.30
2018-12-16T02:20:05.208Z,-1.30
2018-12-16T02:22:33.432Z,-1.40
2018-12-16T02:25:02.855Z,-1.40
2018-12-16T02:27:31.301Z,-1.40
2018-12-16T02:29:59.503Z,-1.40
2018-12-16T02:32:27.793Z,-1.20
2018-12-16T02:34:56.005Z,-1.30
2018-12-16T02:37:24.349Z,-1.30
2018-12-16T02:39:52.653Z,-1.30
2018-12-16T02:42:20.952Z,-1.30
2018-12-16T02:44:49.175Z,-1.30
2018-12-16T02:47:17.409Z,-1.30
2018-12-16T02:49:45.640Z,-1.10
2018-12-16T02:52:13.881Z,-1.00
2018-12-16T02:54:42.106Z,-1.10
2018-12-16T02:57:10.350Z,-1.10
2018-12-16T02:59:38.556Z,-1.20
2018-12-16T03:02:06.815Z,-1.20
2018-12-16T03:04:35.117Z,-1.20
2018-12-16T03:07:03.943Z,-1.20
2018-12-16T03:09:32.194Z,-1.30
2018-12-16T03:12:00.426Z,-1.20
2018-12-16T03:14:28.846Z,-1.20
2018-12-16T03:16:57.566Z,-1.10
2018-12-16T03:19:25.802Z,-1.00
2018-12-16T03:21:54.017Z,-1.00
2018-12-16T03:24:22.260Z,-0.90
2018-12-16T03:26:50.567Z,-1.00
2018-12-16T03:29:18.841Z,-0.90
2018-12-16T03:31:47.142Z,-0.90
2018-12-16T03:34:15.445Z,-1.10
2018-12-16T03:36:43.701Z,-1.00
2018-12-16T03:39:12.044Z,-1.10
2018-12-16T03:41:40.283Z,-1.10
2018-12-16T03:44:08.806Z,-1.20
2018-12-16T03:46:37.124Z,-1.40
2018-12-16T03:49:05.434Z,-1.40
2018-12-16T03:51:33.634Z,-1.20
2018-12-16T03:54:04.311Z,-1.30
2018-12-16T03:56:32.519Z,-1.30
2018-12-16T03:59:14.836Z,-1.20
2018-12-16T04:01:45.581Z,-1.00
2018-12-16T04:04:14.232Z,-1.00
2018-12-16T04:06:43.351Z,-1.10
2018-12-16T04:09:11.899Z,-1.50
2018-12-16T04:11:40.161Z,-1.50
2018-12-16T04:14:08.393Z,-1.60
2018-12-16T04:16:37.075Z,-1.50
2018-12-16T04:19:05.564Z,-1.60
2018-12-16T04:21:34.105Z,-1.80
2018-12-16T04:24:03.390Z,-1.70
2018-12-16T04:26:31.603Z,-1.60
2018-12-16T04:28:59.894Z,-1.70
2018-12-16T04:31:28.256Z,-1.80
2018-12-16T04:33:56.473Z,-1.80
2018-12-16T04:36:24.748Z,-1.80
2018-12-16T04:38:52.936Z,-1.80
2018-12-16T04:41:21.157Z,-1.90
2018-12-16T04:43:49.575Z,-1.90
2018-12-16T04:46:17.848Z,-1.90
2018-12-16T04:48:46.269Z,-1.80
2018-12-16T04:51:14.454Z,-1.60
2018-12-16T04:53:42.645Z,-1.60
2018-12-16T04:56:10.858Z,-1.70
2018-12-16T04:58:39.336Z,-1.50
2018-12-16T05:01:07.850Z,-1.60
2018-12-16T05:03:36.037Z,-1.60
2018-12-16T05:06:04.401Z,-1.80
2018-12-16T05:08:32.587Z,-1.90
2018-12-16T05:11:00.816Z,-1.90
2018-12-16T05:13:29.109Z,-1.90
2018-12-16T05:15:57.393Z,-1.70
2018-12-16T05:18:25.576Z,-1.70
2018-12-16T05:20:53.791Z,-1.80
2018-12-16T05:23:21.996Z,-2.00
2018-12-16T05:25:50.200Z,-1.90
2018-12-16T05:28:18.631Z,-1.80
2018-12-16T05:30:46.854Z,-1.70
2018-12-16T05:33:15.040Z,-1.70
2018-12-16T05:35:43.256Z,-1.60
2018-12-16T05:38:11.454Z,-1.60
2018-12-16T05:40:39.870Z,-1.60
2018-12-16T05:43:08.056Z,-1.60
2018-12-16T05:45:36.264Z,-1.50
2018-12-16T05:48:04.545Z,-1.50
2018-12-16T05:50:33.216Z,-1.40
2018-12-16T05:53:01.759Z,-1.40
2018-12-16T05:55:30.036Z,-1.40
2018-12-16T05:57:58.237Z,-1.40
2018-12-16T06:00:26.461Z,-1.40
2018-12-16T06:02:54.716Z,-1.40
2018-12-16T06:05:22.979Z,-1.40
2018-12-16T06:07:51.156Z,-1.40
2018-12-16T06:10:19.415Z,-1.30
2018-12-16T06:12:47.587Z,-1.30
2018-12-16T06:15:15.810Z,-1.30
2018-12-16T06:17:44.421Z,-1.20
2018-12-16T06:20:12.628Z,-1.30
2018-12-16T06:22:40.816Z,-1.30
2018-12-16T06:25:09.188Z,-1.30
2018-12-16T06:27:37.369Z,-1.20
2018-12-16T06:30:06.322Z,-1.20
2018-12-16T06:32:34.512Z,-1.20
2018-12-16T06:35:03.753Z,-1.20
2018-12-16T06:37:32.132Z,-1.20
2018-12-16T06:40:00.330Z,-1.00
2018-12-16T06:42:28.975Z,-1.10
2018-12-16T06:44:57.393Z,-1.10
2018-12-16T06:47:26.036Z,-1.20
2018-12-16T06:49:54.468Z,-1.10
2018-12-16T06:52:22.759Z,-1.00
2018-12-16T06:54:50.992Z,-1.00
2018-12-16T06:57:19.309Z,-1.00
2018-12-16T06:59:47.514Z,-0.90
2018-12-16T07:02:15.711Z,-1.00
2018-12-16T07:04:44.008Z,-1.10
2018-12-16T07:07:12.237Z,-1.00
2018-12-16T07:09:40.893Z,-1.10
2018-12-16T07:12:09.193Z,-1.10
2018-12-16T07:14:37.510Z,-1.00
2018-12-16T07:17:05.877Z,-0.90
2018-12-16T07:19:34.148Z,-0.90
2018-12-16T07:22:03.250Z,-0.70
2018-12-16T07:24:31.601Z,-0.70
2018-12-16T07:26:59.808Z,-0.80
2018-12-16T07:29:28.067Z,-0.80
2018-12-16T07:31:56.341Z,-0.80
2018-12-16T07:34:24.581Z,-0.70
2018-12-16T07:36:52.771Z,-0.60
2018-12-16T07:39:21.011Z,-0.50
2018-12-16T07:41:50.186Z,-0.60
2018-12-16T07:44:20.243Z,-0.50
2018-12-16T07:46:48.526Z,-0.60
2018-12-16T07:49:16.704Z,-0.50
2018-12-16T07:51:44.893Z,-0.50
2018-12-16T07:54:16.152Z,-0.40
2018-12-16T07:56:43.577Z,-0.40
2018-12-16T07:59:11.776Z,-0.40
2018-12-16T08:01:40.178Z,-0.50
2018-12-16T08:04:08.590Z,-0.40
2018-12-16T08:06:36.980Z,-0.30
2018-12-16T08:09:06.542Z,-0.40
2018-12-16T08:11:34.771Z,-0.30
2018-12-16T08:14:03.898Z,-0.20
2018-12-16T08:16:38.990Z,-0.30
2018-12-16T08:19:07.356Z,-0.30
2018-12-16T08:21:35.606Z,-0.20
2018-12-16T08:24:03.895Z,-0.10
2018-12-16T08:26:32.108Z,-0.20
2018-12-16T08:29:00.319Z,0.00
2018-12-16T08:31:28.881Z,-0.10
2018-12-16T08:33:57.130Z,0.00
2018-12-16T08:36:25.412Z,0.10
2018-12-16T08:41:45.288Z,0.20
2018-12-16T08:44:13.493Z,0.10
2018-12-16T08:46:41.733Z,0.20
2018-12-16T08:49:09.937Z,0.20
2018-12-16T08:51:38.128Z,0.40
2018-12-16T08:54:06.353Z,0.50
2018-12-16T08:56:34.547Z,0.60
2018-12-16T08:59:03.226Z,0.70
2018-12-16T09:01:31.740Z,0.90
2018-12-16T09:04:00.176Z,0.90
2018-12-16T09:06:28.457Z,1.00
2018-12-16T09:08:57.092Z,1.00
2018-12-16T09:11:25.368Z,1.00
2018-12-16T09:13:53.556Z,1.00
2018-12-16T09:16:21.804Z,1.10
2018-12-16T09:18:49.985Z,1.10
2018-12-16T09:21:18.423Z,1.10
2018-12-16T09:23:46.953Z,1.20
2018-12-16T09:26:15.216Z,1.20
2018-12-16T09:28:43.419Z,1.30
2018-12-16T09:31:11.614Z,1.40
2018-12-16T09:33:39.909Z,1.30
2018-12-16T09:36:08.125Z,1.30
2018-12-16T09:38:36.293Z,1.50
2018-12-16T09:41:04.660Z,1.60
2018-12-16T09:43:32.838Z,1.70
2018-12-16T09:46:02.312Z,1.80
2018-12-16T09:48:30.832Z,1.70
2018-12-16T09:50:59.173Z,1.80
2018-12-16T09:53:27.364Z,1.80
2018-12-16T09:55:55.625Z,1.80
2018-12-16T09:58:23.872Z,1.70
2018-12-16T10:00:52.418Z,1.70
2018-12-16T10:03:20.937Z,1.70
2018-12-16T10:05:49.667Z,1.70
2018-12-16T10:08:18.285Z,1.80
2018-12-16T10:10:46.826Z,1.80
2018-12-16T10:13:15.292Z,1.60
2018-12-16T10:15:43.753Z,1.70
2018-12-16T10:18:12.234Z,1.90
2018-12-16T10:20:40.516Z,1.90
2018-12-16T10:23:08.732Z,2.00
2018-12-16T10:25:37.073Z,2.10
2018-12-16T10:28:05.490Z,2.10
2018-12-16T10:30:34.638Z,2.20
2018-12-16T10:33:03.313Z,2.10
2018-12-16T10:35:31.476Z,2.00
2018-12-16T10:37:59.765Z,1.80
2018-12-16T10:40:28.140Z,1.90
2018-12-16T10:42:56.409Z,1.90
2018-12-16T10:45:24.909Z,1.90
2018-12-16T10:47:53.166Z,1.80
2018-12-16T10:50:21.357Z,1.80
2018-12-16T10:52:49.582Z,1.90
2018-12-16T10:55:17.880Z,1.80
2018-12-16T10:57:46.173Z,1.80
2018-12-16T11:00:19.912Z,1.90
2018-12-16T11:02:48.149Z,1.90
2018-12-16T11:05:24.145Z,1.80
2018-12-16T11:14:03.941Z,2.10
2018-12-16T11:16:35.140Z,2.10
2018-12-16T11:19:03.953Z,2.00
2018-12-16T11:21:32.297Z,2.10
2018-12-16T11:24:04.581Z,2.10
2018-12-16T11:26:41.007Z,2.00
2018-12-16T11:29:09.480Z,2.00
2018-12-16T11:31:37.789Z,2.10
2018-12-16T11:34:05.988Z,2.10
2018-12-16T11:36:34.261Z,2.10
2018-12-16T11:39:18.736Z,2.20
2018-12-16T11:41:46.913Z,2.20
2018-12-16T11:44:15.206Z,2.30
2018-12-16T11:46:43.444Z,2.40
2018-12-16T11:49:11.629Z,2.30
2018-12-16T11:51:40.371Z,2.30
2018-12-16T11:54:08.808Z,2.40
2018-12-16T11:56:37.059Z,2.50
2018-12-16T11:59:05.281Z,2.60
2018-12-16T12:01:34.545Z,2.80
2018-12-16T12:04:05.949Z,3.00
2018-12-16T12:06:34.271Z,3.10
2018-12-16T12:09:04.358Z,3.30
2018-12-16T12:11:32.607Z,3.30
2018-12-16T12:14:01.777Z,3.30
2018-12-16T12:16:29.996Z,3.50
2018-12-16T12:19:00.702Z,3.50
2018-12-16T12:21:29.481Z,3.40
2018-12-16T12:23:57.718Z,3.50
2018-12-16T12:26:26.527Z,3.40
2018-12-16T12:28:54.842Z,3.40
2018-12-16T12:31:23.220Z,3.50
2018-12-16T12:33:51.448Z,3.50
2018-12-16T12:36:19.658Z,3.50
2018-12-16T12:38:47.857Z,3.40
2018-12-16T12:41:16.032Z,3.50
2018-12-16T12:43:44.223Z,3.60
2018-12-16T12:49:05.642Z,3.60
2018-12-16T12:51:33.920Z,3.70
2018-12-16T12:54:02.505Z,3.60
2018-12-16T12:56:30.661Z,3.60
2018-12-16T12:58:58.909Z,3.60
2018-12-16T13:01:28.089Z,3.60
2018-12-16T13:03:57.381Z,3.60
2018-12-16T13:06:26.467Z,3.60
2018-12-16T13:08:55.007Z,3.60
2018-12-16T13:11:26.557Z,3.60
2018-12-16T13:13:56.400Z,3.60
2018-12-16T13:16:30.995Z,3.60
2018-12-16T13:19:08.325Z,3.80
2018-12-16T13:21:38.684Z,3.80
2018-12-16T13:24:07.241Z,3.90
2018-12-16T13:26:37.030Z,3.80
2018-12-16T13:29:06.898Z,3.90
2018-12-16T13:31:35.177Z,3.90
2018-12-16T13:34:03.598Z,3.90
2018-12-16T13:36:31.922Z,3.90
2018-12-16T13:39:04.428Z,3.90
2018-12-16T13:41:33.017Z,3.90
2018-12-16T13:44:13.435Z,4.00
2018-12-16T13:46:42.374Z,4.00
2018-12-16T13:49:11.812Z,4.00
2018-12-16T13:51:42.406Z,3.90
2018-12-16T13:54:10.928Z,3.90
2018-12-16T13:56:39.331Z,3.80
2018-12-16T13:59:07.548Z,3.80
2018-12-16T14:01:52.288Z,3.80
2018-12-16T14:04:20.680Z,3.70
2018-12-16T14:06:48.929Z,3.60
2018-12-16T14:09:18.614Z,3.60
2018-12-16T14:11:47.093Z,3.60
2018-12-16T14:14:15.266Z,3.70
2018-12-16T14:16:43.576Z,3.70
2018-12-16T14:19:11.753Z,3.70
2018-12-16T14:21:39.965Z,3.80
2018-12-16T14:24:10.627Z,3.70
2018-12-16T14:26:42.029Z,3.60
2018-12-16T14:29:10.301Z,3.60
2018-12-16T14:31:38.509Z,3.60
2018-12-16T14:34:06.776Z,3.60
2018-12-16T14:36:35.121Z,3.50
2018-12-16T14:39:05.780Z,3.50
2018-12-16T14:41:34.014Z,3.40
2018-12-16T14:44:02.365Z,3.40
2018-12-16T14:46:30.590Z,3.40
2018-12-16T14:49:00.629Z,3.30
2018-12-16T14:51:29.040Z,3.40
2018-12-16T14:53:57.548Z,3.40
2018-12-16T14:56:27.776Z,3.30
2018-12-16T14:58:57.914Z,3.30
2018-12-16T15:01:26.194Z,3.20
2018-12-16T15:03:54.461Z,3.20
2018-12-16T15:06:22.669Z,3.30
2018-12-16T15:08:52.211Z,3.30
2018-12-16T15:11:20.610Z,3.30
2018-12-16T15:27:37.646Z,3.20
2018-12-16T15:32:48.397Z,3.20
2018-12-16T15:38:07.159Z,3.20
2018-12-16T15:40:35.350Z,3.20
2018-12-16T15:43:03.824Z,3.10
2018-12-16T15:45:32.315Z,2.90
2018-12-16T15:48:00.633Z,2.60
2018-12-16T15:50:29.425Z,2.60
2018-12-16T15:52:59.259Z,2.70
2018-12-16T15:55:28.290Z,2.60
2018-12-16T15:57:56.569Z,2.60
2018-12-16T16:00:25.778Z,2.60
2018-12-16T16:02:54.325Z,2.50
2018-12-16T16:05:22.966Z,2.50
2018-12-16T16:07:51.574Z,2.50
2018-12-16T16:10:20.187Z,2.50
2018-12-16T16:12:48.600Z,2.40
2018-12-16T16:15:17.254Z,2.40
2018-12-16T16:17:45.907Z,2.30
2018-12-16T16:20:25.261Z,2.30
2018-12-16T16:22:53.839Z,2.20
2018-12-16T16:25:22.320Z,2.20
2018-12-16T16:33:36.200Z,2.40
2018-12-16T16:36:04.717Z,2.50
2018-12-16T16:38:32.927Z,2.70
2018-12-16T16:41:02.333Z,2.70
2018-12-16T16:46:24.135Z,2.80
2018-12-16T16:48:53.584Z,2.80
2018-12-16T16:51:22.221Z,2.80
2018-12-16T16:53:51.101Z,2.70
2018-12-16T16:56:23.084Z,2.80
2018-12-16T16:58:51.019Z,2.70
2018-12-16T17:01:19.883Z,2.70
2018-12-16T17:03:57.217Z,2.60
2018-12-16T17:09:04.280Z,2.60
2018-12-16T17:11:32.605Z,2.60
2018-12-16T17:14:01.540Z,2.60
2018-12-16T17:16:33.084Z,2.60
2018-12-16T17:19:07.724Z,2.50
2018-12-16T17:21:37.310Z,2.50
2018-12-16T17:24:05.536Z,2.50
2018-12-16T17:26:34.353Z,2.60
2018-12-16T17:29:03.877Z,2.60
2018-12-16T17:31:32.581Z,2.60
2018-12-16T17:34:02.951Z,2.60
2018-12-16T17:36:31.429Z,2.60
2018-12-16T17:38:59.678Z,2.50
2018-12-16T17:41:28.739Z,2.50
2018-12-16T17:43:57.726Z,2.40
2018-12-16T17:46:26.245Z,2.40
2018-12-16T17:48:54.838Z,2.40
2018-12-16T17:51:23.232Z,2.40
2018-12-16T17:53:52.941Z,2.40
2018-12-16T17:56:21.168Z,2.40
2018-12-16T17:58:49.372Z,2.20
2018-12-16T18:01:22.063Z,2.00
2018-12-16T18:03:50.292Z,2.00
2018-12-16T18:06:19.231Z,2.00
2018-12-16T18:08:47.476Z,1.90
2018-12-16T18:11:15.788Z,1.90
2018-12-16T18:13:44.116Z,1.90
2018-12-16T18:16:12.342Z,1.80
2018-12-16T18:18:40.586Z,1.80
2018-12-16T18:21:09.551Z,1.80
2018-12-16T18:23:38.763Z,1.70
2018-12-16T18:26:08.799Z,1.70
2018-12-16T18:28:37.283Z,1.70
2018-12-16T18:31:05.622Z,1.70
2018-12-16T18:33:34.136Z,1.80
2018-12-16T18:36:03.024Z,1.90
2018-12-16T18:38:31.305Z,1.90
2018-12-16T18:40:59.505Z,2.00
2018-12-16T18:43:27.801Z,2.00
2018-12-16T18:48:34.238Z,2.00
2018-12-16T18:51:03.247Z,2.10
2018-12-16T18:53:32.024Z,2.20
2018-12-16T18:56:01.815Z,2.20
2018-12-16T18:58:30.015Z,2.30
2018-12-16T19:00:58.725Z,2.30
2018-12-16T19:03:27.187Z,2.30
2018-12-16T19:05:55.534Z,2.20
2018-12-16T19:11:20.220Z,2.10
2018-12-16T19:13:48.874Z,2.10
2018-12-16T19:16:17.454Z,2.00
2018-12-16T19:18:46.196Z,2.10
2018-12-16T19:21:14.871Z,2.20
2018-12-16T19:23:43.455Z,2.20
2018-12-16T19:26:12.076Z,2.30
2018-12-16T19:28:40.608Z,2.50
2018-12-16T19:31:13.322Z,2.40
2018-12-16T19:33:43.303Z,2.50
2018-12-16T19:36:12.655Z,2.40
2018-12-16T19:38:40.955Z,2.50
2018-12-16T19:41:09.203Z,2.50
2018-12-16T19:43:37.542Z,2.60
2018-12-16T19:46:05.801Z,2.50
2018-12-16T19:48:34.170Z,2.60
2018-12-16T19:51:03.137Z,2.60
2018-12-16T19:53:31.417Z,2.60
2018-12-16T19:55:59.867Z,2.60
2018-12-16T19:58:28.597Z,2.70
2018-12-16T20:00:57.723Z,2.70
2018-12-16T20:03:26.901Z,2.60
2018-12-16T20:06:00.561Z,2.70
2018-12-16T20:08:28.910Z,2.70
2018-12-16T20:10:57.272Z,2.70
2018-12-16T20:13:30.897Z,2.70
2018-12-16T20:16:01.611Z,2.60
2018-12-16T20:18:29.789Z,2.60
2018-12-16T20:20:58.641Z,2.50
2018-12-16T20:23:27.369Z,2.60
2018-12-16T20:25:56.137Z,2.60
2018-12-16T20:28:24.326Z,2.60
2018-12-16T20:30:52.646Z,2.60
2018-12-16T20:33:20.975Z,2.60
2018-12-16T20:35:49.358Z,2.50
2018-12-16T20:38:17.746Z,2.40
2018-12-16T20:40:46.199Z,2.40
2018-12-16T20:43:14.518Z,2.30
2018-12-16T20:45:44.076Z,2.20
2018-12-16T20:48:12.710Z,2.20
2018-12-16T20:50:40.988Z,2.20
2018-12-16T20:53:09.279Z,2.30
2018-12-16T20:55:38.325Z,2.40
2018-12-16T20:58:06.542Z,2.30
2018-12-16T21:00:34.805Z,2.30
2018-12-16T21:03:03.680Z,2.30
2018-12-16T21:05:32.968Z,2.30
2018-12-16T21:08:01.938Z,2.40
2018-12-16T21:10:30.157Z,2.40
2018-12-16T21:13:03.759Z,2.50
2018-12-16T21:15:38.509Z,2.40
2018-12-16T21:18:12.290Z,2.50
2018-12-16T21:20:40.521Z,2.50
2018-12-16T21:23:08.749Z,2.50
2018-12-16T21:25:37.060Z,2.60
2018-12-16T21:28:05.302Z,2.60
2018-12-16T21:30:33.572Z,2.70
2018-12-16T21:33:02.509Z,2.60
2018-12-16T21:35:31.900Z,2.70
2018-12-16T21:38:00.554Z,2.50
2018-12-16T21:40:28.781Z,2.50
2018-12-16T21:42:56.976Z,2.50
2018-12-16T21:45:33.821Z,2.40
2018-12-16T21:48:03.700Z,2.40
2018-12-16T21:50:32.325Z,2.40
2018-12-16T21:53:00.640Z,2.40
2018-12-16T21:55:28.934Z,2.30
2018-12-16T21:57:57.235Z,2.30
2018-12-16T22:00:25.541Z,2.30
2018-12-16T22:02:53.840Z,2.30
2018-12-16T22:05:26.419Z,2.30
2018-12-16T22:07:55.213Z,2.30
2018-12-16T22:10:23.616Z,2.40
2018-12-16T22:12:51.853Z,2.40
2018-12-16T22:15:20.096Z,2.30
2018-12-16T22:17:48.458Z,2.30
2018-12-16T22:20:16.929Z,2.30
2018-12-16T22:22:45.246Z,2.40
2018-12-16T22:25:13.689Z,2.30
2018-12-16T22:27:41.910Z,2.40
2018-12-16T22:30:10.224Z,2.30
2018-12-16T22:32:38.462Z,2.20
2018-12-16T22:35:08.602Z,2.20
2018-12-16T22:37:37.125Z,2.20
2018-12-16T22:40:06.614Z,2.20
2018-12-16T22:42:35.127Z,2.10
2018-12-16T22:45:04.768Z,2.10
2018-12-16T22:47:33.207Z,2.20
2018-12-16T22:50:01.924Z,2.20
2018-12-16T22:52:30.432Z,2.20
2018-12-16T22:54:59.060Z,2.20
2018-12-16T22:57:27.569Z,2.30
2018-12-16T22:59:56.001Z,2.30
2018-12-16T23:02:25.200Z,2.30
2018-12-16T23:04:54.774Z,2.40
2018-12-16T23:07:23.321Z,2.30
2018-12-16T23:09:51.855Z,2.30
2018-12-16T23:12:20.354Z,2.30
2018-12-16T23:14:48.841Z,2.30
2018-12-16T23:17:17.310Z,2.20
2018-12-16T23:19:50.133Z,2.10
2018-12-16T23:22:18.793Z,2.20
2018-12-16T23:24:49.487Z,2.20
2018-12-16T23:27:18.135Z,2.20
2018-12-16T23:29:46.583Z,2.10
2018-12-16T23:32:15.007Z,2.10
2018-12-16T23:34:43.443Z,1.90
2018-12-16T23:37:11.864Z,1.90
2018-12-16T23:39:40.938Z,1.90
2018-12-16T23:42:09.589Z,1.90
2018-12-16T23:44:38.047Z,2.00
2018-12-16T23:47:06.550Z,2.00
2018-12-16T23:49:35.027Z,2.00
2018-12-16T23:52:04.030Z,2.00
2018-12-16T23:54:32.444Z,2.00
2018-12-16T23:57:01.843Z,1.90
2018-12-16T23:59:30.337Z,2.00
